Catalao, Brazil
Current Conditions -  °F | °C
As of 12:00 AM on Saturday 29 Nov 2014 (Local Time) from SBUL Reporting Station
Light Rain Light Rain  
Wind Chill: 66°   Ceiling: 200
Heat Index: 66°   Visibility: 1.2mi
Dew Point: 64°   Wind: 10mph
Humidity: 94%   Direction: 340°NNW
Pressure: 30.12"   Gusts: NA
Location:  18.18°S, 47.95°W
Report Text: SBUL 290200Z 34009KT 2000 -RA BR BKN002 19/18 Q1020
Loading
Personal Weather Stations






























Interactive Weather Map New forecast layout! Learn more

10-Day Weather Forecast

Advertisements
Track Severe Weather on mobile